sensor_id;sensor_type;location;lat;lon;timestamp;temperature;humidity
32296;DHT22;18781;51.550;5.418;2022-08-23T00:01:30;22.50;55.90
32296;DHT22;18781;51.550;5.418;2022-08-23T00:03:59;22.50;55.80
32296;DHT22;18781;51.550;5.418;2022-08-23T00:06:26;22.40;56.00
32296;DHT22;18781;51.550;5.418;2022-08-23T00:08:53;22.40;55.90
32296;DHT22;18781;51.550;5.418;2022-08-23T00:11:42;22.40;55.90
32296;DHT22;18781;51.550;5.418;2022-08-23T00:14:16;22.30;56.60
32296;DHT22;18781;51.550;5.418;2022-08-23T00:16:42;22.30;56.10
32296;DHT22;18781;51.550;5.418;2022-08-23T00:19:10;22.20;55.90
32296;DHT22;18781;51.550;5.418;2022-08-23T00:21:36;22.20;56.20
32296;DHT22;18781;51.550;5.418;2022-08-23T00:24:04;22.20;56.20
32296;DHT22;18781;51.550;5.418;2022-08-23T00:26:52;22.10;56.60
32296;DHT22;18781;51.550;5.418;2022-08-23T00:29:19;22.10;57.00
32296;DHT22;18781;51.550;5.418;2022-08-23T00:31:45;22.00;56.50
32296;DHT22;18781;51.550;5.418;2022-08-23T00:34:11;22.00;56.50
32296;DHT22;18781;51.550;5.418;2022-08-23T00:36:37;22.00;56.50
32296;DHT22;18781;51.550;5.418;2022-08-23T00:39:04;22.00;56.60
32296;DHT22;18781;51.550;5.418;2022-08-23T00:41:30;21.90;56.60
32296;DHT22;18781;51.550;5.418;2022-08-23T00:43:56;21.90;56.90
32296;DHT22;18781;51.550;5.418;2022-08-23T00:46:55;21.80;57.60
32296;DHT22;18781;51.550;5.418;2022-08-23T00:49:44;21.80;57.00
32296;DHT22;18781;51.550;5.418;2022-08-23T00:52:20;21.80;57.30
32296;DHT22;18781;51.550;5.418;2022-08-23T00:54:47;21.70;57.60
32296;DHT22;18781;51.550;5.418;2022-08-23T00:57:15;21.70;57.30
32296;DHT22;18781;51.550;5.418;2022-08-23T00:59:43;21.70;57.60
32296;DHT22;18781;51.550;5.418;2022-08-23T01:02:09;21.60;57.30
32296;DHT22;18781;51.550;5.418;2022-08-23T01:04:42;21.60;57.50
32296;DHT22;18781;51.550;5.418;2022-08-23T01:09:41;21.60;58.10
32296;DHT22;18781;51.550;5.418;2022-08-23T01:12:13;21.50;58.00
32296;DHT22;18781;51.550;5.418;2022-08-23T01:14:46;21.50;58.00
32296;DHT22;18781;51.550;5.418;2022-08-23T01:17:23;21.50;58.20
32296;DHT22;18781;51.550;5.418;2022-08-23T01:19:54;21.40;58.30
32296;DHT22;18781;51.550;5.418;2022-08-23T01:22:40;21.40;58.20
32296;DHT22;18781;51.550;5.418;2022-08-23T01:25:10;21.40;58.00
32296;DHT22;18781;51.550;5.418;2022-08-23T01:27:37;21.40;58.00
32296;DHT22;18781;51.550;5.418;2022-08-23T01:30:08;21.30;58.10
32296;DHT22;18781;51.550;5.418;2022-08-23T01:32:39;21.30;58.40
32296;DHT22;18781;51.550;5.418;2022-08-23T01:35:07;21.30;58.40
32296;DHT22;18781;51.550;5.418;2022-08-23T01:37:33;21.30;58.40
32296;DHT22;18781;51.550;5.418;2022-08-23T01:39:59;21.20;58.40
32296;DHT22;18781;51.550;5.418;2022-08-23T01:42:24;21.20;58.30
32296;DHT22;18781;51.550;5.418;2022-08-23T01:44:50;21.20;58.60
32296;DHT22;18781;51.550;5.418;2022-08-23T01:47:16;21.20;58.70
32296;DHT22;18781;51.550;5.418;2022-08-23T01:49:41;21.20;58.80
32296;DHT22;18781;51.550;5.418;2022-08-23T01:52:07;21.10;58.80
32296;DHT22;18781;51.550;5.418;2022-08-23T01:54:33;21.10;58.90
32296;DHT22;18781;51.550;5.418;2022-08-23T01:56:58;21.10;59.00
32296;DHT22;18781;51.550;5.418;2022-08-23T01:59:24;21.00;58.90
32296;DHT22;18781;51.550;5.418;2022-08-23T02:01:50;21.00;59.00
32296;DHT22;18781;51.550;5.418;2022-08-23T02:04:18;21.00;59.10
32296;DHT22;18781;51.550;5.418;2022-08-23T02:06:43;20.90;59.00
32296;DHT22;18781;51.550;5.418;2022-08-23T02:09:09;20.90;59.10
32296;DHT22;18781;51.550;5.418;2022-08-23T02:11:38;20.90;59.20
32296;DHT22;18781;51.550;5.418;2022-08-23T02:14:05;20.90;59.40
32296;DHT22;18781;51.550;5.418;2022-08-23T02:16:34;20.90;58.90
32296;DHT22;18781;51.550;5.418;2022-08-23T02:19:02;20.90;59.30
32296;DHT22;18781;51.550;5.418;2022-08-23T02:21:29;20.80;59.30
32296;DHT22;18781;51.550;5.418;2022-08-23T02:24:05;20.80;59.30
32296;DHT22;18781;51.550;5.418;2022-08-23T02:26:31;20.80;59.50
32296;DHT22;18781;51.550;5.418;2022-08-23T02:28:57;20.80;59.60
32296;DHT22;18781;51.550;5.418;2022-08-23T02:31:22;20.80;59.70
32296;DHT22;18781;51.550;5.418;2022-08-23T02:33:48;20.80;59.70
32296;DHT22;18781;51.550;5.418;2022-08-23T02:36:14;20.80;59.80
32296;DHT22;18781;51.550;5.418;2022-08-23T02:38:40;20.80;59.90
32296;DHT22;18781;51.550;5.418;2022-08-23T02:41:06;20.70;60.00
32296;DHT22;18781;51.550;5.418;2022-08-23T02:43:32;20.70;59.90
32296;DHT22;18781;51.550;5.418;2022-08-23T02:45:58;20.70;59.90
32296;DHT22;18781;51.550;5.418;2022-08-23T02:48:24;20.70;59.70
32296;DHT22;18781;51.550;5.418;2022-08-23T02:50:49;20.70;59.90
32296;DHT22;18781;51.550;5.418;2022-08-23T02:53:15;20.60;59.90
32296;DHT22;18781;51.550;5.418;2022-08-23T02:55:45;20.70;60.00
32296;DHT22;18781;51.550;5.418;2022-08-23T02:58:11;20.60;60.40
32296;DHT22;18781;51.550;5.418;2022-08-23T03:00:36;20.60;60.30
32296;DHT22;18781;51.550;5.418;2022-08-23T03:03:04;20.60;60.30
32296;DHT22;18781;51.550;5.418;2022-08-23T03:05:29;20.60;60.40
32296;DHT22;18781;51.550;5.418;2022-08-23T03:07:56;20.60;60.50
32296;DHT22;18781;51.550;5.418;2022-08-23T03:10:22;20.60;60.60
32296;DHT22;18781;51.550;5.418;2022-08-23T03:12:48;20.60;60.60
32296;DHT22;18781;51.550;5.418;2022-08-23T03:15:14;20.60;60.60
32296;DHT22;18781;51.550;5.418;2022-08-23T03:17:39;20.50;60.60
32296;DHT22;18781;51.550;5.418;2022-08-23T03:20:05;20.50;60.70
32296;DHT22;18781;51.550;5.418;2022-08-23T03:22:31;20.50;60.80
32296;DHT22;18781;51.550;5.418;2022-08-23T03:24:57;20.50;60.90
32296;DHT22;18781;51.550;5.418;2022-08-23T03:27:22;20.50;61.00
32296;DHT22;18781;51.550;5.418;2022-08-23T03:29:48;20.50;61.80
32296;DHT22;18781;51.550;5.418;2022-08-23T03:32:14;20.50;61.20
32296;DHT22;18781;51.550;5.418;2022-08-23T03:34:40;20.50;61.20
32296;DHT22;18781;51.550;5.418;2022-08-23T03:37:06;20.40;61.20
32296;DHT22;18781;51.550;5.418;2022-08-23T03:39:31;20.40;61.40
32296;DHT22;18781;51.550;5.418;2022-08-23T03:41:57;20.40;61.40
32296;DHT22;18781;51.550;5.418;2022-08-23T03:44:22;20.40;61.50
32296;DHT22;18781;51.550;5.418;2022-08-23T03:46:48;20.40;61.70
32296;DHT22;18781;51.550;5.418;2022-08-23T03:49:14;20.40;61.90
32296;DHT22;18781;51.550;5.418;2022-08-23T03:51:40;20.40;61.90
32296;DHT22;18781;51.550;5.418;2022-08-23T03:54:05;20.40;61.90
32296;DHT22;18781;51.550;5.418;2022-08-23T03:56:37;20.40;61.90
32296;DHT22;18781;51.550;5.418;2022-08-23T03:59:06;20.40;62.30
32296;DHT22;18781;51.550;5.418;2022-08-23T04:01:33;20.40;62.20
32296;DHT22;18781;51.550;5.418;2022-08-23T04:03:59;20.40;62.00
32296;DHT22;18781;51.550;5.418;2022-08-23T04:06:25;20.40;62.10
32296;DHT22;18781;51.550;5.418;2022-08-23T04:08:51;20.40;62.10
32296;DHT22;18781;51.550;5.418;2022-08-23T04:11:20;20.40;62.00
32296;DHT22;18781;51.550;5.418;2022-08-23T04:13:46;20.40;62.10
32296;DHT22;18781;51.550;5.418;2022-08-23T04:16:11;20.40;62.10
32296;DHT22;18781;51.550;5.418;2022-08-23T04:18:38;20.40;62.30
32296;DHT22;18781;51.550;5.418;2022-08-23T04:21:08;20.50;62.30
32296;DHT22;18781;51.550;5.418;2022-08-23T04:23:37;20.50;62.50
32296;DHT22;18781;51.550;5.418;2022-08-23T04:26:04;20.40;62.20
32296;DHT22;18781;51.550;5.418;2022-08-23T04:28:31;20.40;62.20
32296;DHT22;18781;51.550;5.418;2022-08-23T04:30:57;20.40;62.40
32296;DHT22;18781;51.550;5.418;2022-08-23T04:33:27;20.40;62.50
32296;DHT22;18781;51.550;5.418;2022-08-23T04:35:56;20.40;62.50
32296;DHT22;18781;51.550;5.418;2022-08-23T04:38:25;20.40;62.50
32296;DHT22;18781;51.550;5.418;2022-08-23T04:40:51;20.40;62.60
32296;DHT22;18781;51.550;5.418;2022-08-23T04:43:35;20.40;62.60
32296;DHT22;18781;51.550;5.418;2022-08-23T04:46:00;20.40;62.80
32296;DHT22;18781;51.550;5.418;2022-08-23T04:48:26;20.40;62.90
32296;DHT22;18781;51.550;5.418;2022-08-23T04:50:51;20.40;63.10
32296;DHT22;18781;51.550;5.418;2022-08-23T04:53:17;20.40;63.00
32296;DHT22;18781;51.550;5.418;2022-08-23T04:55:43;20.50;63.30
32296;DHT22;18781;51.550;5.418;2022-08-23T04:58:09;20.40;63.20
32296;DHT22;18781;51.550;5.418;2022-08-23T05:00:34;20.50;63.20
32296;DHT22;18781;51.550;5.418;2022-08-23T05:03:00;20.50;63.20
32296;DHT22;18781;51.550;5.418;2022-08-23T05:05:25;20.50;63.30
32296;DHT22;18781;51.550;5.418;2022-08-23T05:07:52;20.50;63.40
32296;DHT22;18781;51.550;5.418;2022-08-23T05:10:18;20.50;63.50
32296;DHT22;18781;51.550;5.418;2022-08-23T05:12:44;20.60;63.60
32296;DHT22;18781;51.550;5.418;2022-08-23T05:15:10;20.60;63.50
32296;DHT22;18781;51.550;5.418;2022-08-23T05:17:37;20.60;63.40
32296;DHT22;18781;51.550;5.418;2022-08-23T05:20:04;20.60;63.60
32296;DHT22;18781;51.550;5.418;2022-08-23T05:22:33;20.60;63.60
32296;DHT22;18781;51.550;5.418;2022-08-23T05:24:59;20.60;63.80
32296;DHT22;18781;51.550;5.418;2022-08-23T05:27:24;20.60;63.50
32296;DHT22;18781;51.550;5.418;2022-08-23T05:29:50;20.70;63.50
32296;DHT22;18781;51.550;5.418;2022-08-23T05:32:19;20.70;63.70
32296;DHT22;18781;51.550;5.418;2022-08-23T05:34:45;20.70;63.70
32296;DHT22;18781;51.550;5.418;2022-08-23T05:37:10;20.70;63.70
32296;DHT22;18781;51.550;5.418;2022-08-23T05:39:36;20.70;63.70
32296;DHT22;18781;51.550;5.418;2022-08-23T05:42:01;20.70;63.80
32296;DHT22;18781;51.550;5.418;2022-08-23T05:44:27;20.70;63.90
32296;DHT22;18781;51.550;5.418;2022-08-23T05:46:53;20.80;63.90
32296;DHT22;18781;51.550;5.418;2022-08-23T05:49:18;20.80;64.00
32296;DHT22;18781;51.550;5.418;2022-08-23T05:51:44;20.80;64.10
32296;DHT22;18781;51.550;5.418;2022-08-23T05:54:09;20.90;64.00
32296;DHT22;18781;51.550;5.418;2022-08-23T05:56:38;20.90;64.10
32296;DHT22;18781;51.550;5.418;2022-08-23T05:59:10;20.90;64.00
32296;DHT22;18781;51.550;5.418;2022-08-23T06:01:36;20.90;63.90
32296;DHT22;18781;51.550;5.418;2022-08-23T06:04:05;21.00;63.70
32296;DHT22;18781;51.550;5.418;2022-08-23T06:06:32;21.00;64.10
32296;DHT22;18781;51.550;5.418;2022-08-23T06:08:58;21.00;63.90
32296;DHT22;18781;51.550;5.418;2022-08-23T06:11:26;21.00;63.60
32296;DHT22;18781;51.550;5.418;2022-08-23T06:13:57;21.10;63.90
32296;DHT22;18781;51.550;5.418;2022-08-23T06:16:28;21.10;64.10
32296;DHT22;18781;51.550;5.418;2022-08-23T06:18:55;21.10;64.20
32296;DHT22;18781;51.550;5.418;2022-08-23T06:21:22;21.10;64.00
32296;DHT22;18781;51.550;5.418;2022-08-23T06:23:48;21.10;64.20
32296;DHT22;18781;51.550;5.418;2022-08-23T06:26:17;21.20;64.10
32296;DHT22;18781;51.550;5.418;2022-08-23T06:28:48;21.20;64.10
32296;DHT22;18781;51.550;5.418;2022-08-23T06:31:15;21.20;64.30
32296;DHT22;18781;51.550;5.418;2022-08-23T06:34:01;21.30;64.00
32296;DHT22;18781;51.550;5.418;2022-08-23T06:36:26;21.30;64.10
32296;DHT22;18781;51.550;5.418;2022-08-23T06:38:53;21.30;64.20
32296;DHT22;18781;51.550;5.418;2022-08-23T06:41:19;21.40;64.20
32296;DHT22;18781;51.550;5.418;2022-08-23T06:43:44;21.40;64.00
32296;DHT22;18781;51.550;5.418;2022-08-23T06:46:12;21.50;64.00
32296;DHT22;18781;51.550;5.418;2022-08-23T06:48:38;21.50;63.90
32296;DHT22;18781;51.550;5.418;2022-08-23T06:51:47;21.60;63.90
32296;DHT22;18781;51.550;5.418;2022-08-23T06:54:15;21.60;63.70
32296;DHT22;18781;51.550;5.418;2022-08-23T06:56:42;21.70;63.70
32296;DHT22;18781;51.550;5.418;2022-08-23T06:59:09;21.70;63.60
32296;DHT22;18781;51.550;5.418;2022-08-23T07:01:44;21.80;63.60
32296;DHT22;18781;51.550;5.418;2022-08-23T07:04:16;21.90;63.50
32296;DHT22;18781;51.550;5.418;2022-08-23T07:06:42;22.00;63.40
32296;DHT22;18781;51.550;5.418;2022-08-23T07:09:07;22.00;63.50
32296;DHT22;18781;51.550;5.418;2022-08-23T07:11:33;22.10;63.40
32296;DHT22;18781;51.550;5.418;2022-08-23T07:14:02;22.20;63.30
32296;DHT22;18781;51.550;5.418;2022-08-23T07:16:39;22.30;63.50
32296;DHT22;18781;51.550;5.418;2022-08-23T07:19:05;22.40;63.50
32296;DHT22;18781;51.550;5.418;2022-08-23T07:21:31;22.50;63.20
32296;DHT22;18781;51.550;5.418;2022-08-23T07:23:57;22.50;63.60
32296;DHT22;18781;51.550;5.418;2022-08-23T07:26:23;22.70;62.80
32296;DHT22;18781;51.550;5.418;2022-08-23T07:28:50;22.70;62.80
32296;DHT22;18781;51.550;5.418;2022-08-23T07:31:20;22.80;62.80
32296;DHT22;18781;51.550;5.418;2022-08-23T07:33:53;22.90;62.50
32296;DHT22;18781;51.550;5.418;2022-08-23T07:36:20;23.00;62.30
32296;DHT22;18781;51.550;5.418;2022-08-23T07:38:47;23.10;62.10
32296;DHT22;18781;51.550;5.418;2022-08-23T07:41:13;23.20;62.00
32296;DHT22;18781;51.550;5.418;2022-08-23T07:43:40;23.20;61.90
32296;DHT22;18781;51.550;5.418;2022-08-23T07:46:06;23.30;61.70
32296;DHT22;18781;51.550;5.418;2022-08-23T07:48:33;23.40;61.50
32296;DHT22;18781;51.550;5.418;2022-08-23T07:51:02;23.50;61.60
32296;DHT22;18781;51.550;5.418;2022-08-23T07:53:29;23.60;61.40
32296;DHT22;18781;51.550;5.418;2022-08-23T07:55:55;23.60;61.40
32296;DHT22;18781;51.550;5.418;2022-08-23T07:58:22;23.70;61.00
32296;DHT22;18781;51.550;5.418;2022-08-23T08:00:49;23.80;60.50
32296;DHT22;18781;51.550;5.418;2022-08-23T08:03:14;23.90;60.30
32296;DHT22;18781;51.550;5.418;2022-08-23T08:05:41;24.00;60.00
32296;DHT22;18781;51.550;5.418;2022-08-23T08:08:08;24.10;59.60
32296;DHT22;18781;51.550;5.418;2022-08-23T08:10:38;24.20;59.60
32296;DHT22;18781;51.550;5.418;2022-08-23T08:13:05;24.30;59.50
32296;DHT22;18781;51.550;5.418;2022-08-23T08:15:31;24.40;59.40
32296;DHT22;18781;51.550;5.418;2022-08-23T08:17:56;24.50;58.90
32296;DHT22;18781;51.550;5.418;2022-08-23T08:20:22;24.60;59.20
32296;DHT22;18781;51.550;5.418;2022-08-23T08:22:48;24.70;58.90
32296;DHT22;18781;51.550;5.418;2022-08-23T08:25:15;24.80;58.40
32296;DHT22;18781;51.550;5.418;2022-08-23T08:27:41;24.90;59.10
32296;DHT22;18781;51.550;5.418;2022-08-23T08:30:08;25.00;58.70
32296;DHT22;18781;51.550;5.418;2022-08-23T08:32:35;25.10;58.40
32296;DHT22;18781;51.550;5.418;2022-08-23T08:35:01;25.20;58.20
32296;DHT22;18781;51.550;5.418;2022-08-23T08:37:28;25.30;58.00
32296;DHT22;18781;51.550;5.418;2022-08-23T08:39:53;25.40;57.80
32296;DHT22;18781;51.550;5.418;2022-08-23T08:45:14;25.60;57.90
32296;DHT22;18781;51.550;5.418;2022-08-23T08:48:07;25.70;57.50
32296;DHT22;18781;51.550;5.418;2022-08-23T08:51:02;25.90;57.40
32296;DHT22;18781;51.550;5.418;2022-08-23T08:53:34;26.00;57.30
32296;DHT22;18781;51.550;5.418;2022-08-23T08:56:17;26.10;56.90
32296;DHT22;18781;51.550;5.418;2022-08-23T08:58:51;26.30;56.50
32296;DHT22;18781;51.550;5.418;2022-08-23T09:01:19;26.40;56.50
32296;DHT22;18781;51.550;5.418;2022-08-23T09:03:46;26.50;55.70
32296;DHT22;18781;51.550;5.418;2022-08-23T09:06:23;26.60;55.60
32296;DHT22;18781;51.550;5.418;2022-08-23T09:11:46;26.80;55.00
32296;DHT22;18781;51.550;5.418;2022-08-23T09:17:04;27.00;54.40
32296;DHT22;18781;51.550;5.418;2022-08-23T09:19:33;27.10;54.40
32296;DHT22;18781;51.550;5.418;2022-08-23T09:22:00;27.20;55.10
32296;DHT22;18781;51.550;5.418;2022-08-23T09:24:27;27.30;54.80
32296;DHT22;18781;51.550;5.418;2022-08-23T09:26:53;27.40;54.40
32296;DHT22;18781;51.550;5.418;2022-08-23T09:29:25;27.60;54.30
32296;DHT22;18781;51.550;5.418;2022-08-23T09:32:03;27.70;53.60
32296;DHT22;18781;51.550;5.418;2022-08-23T09:37:24;27.90;52.90
32296;DHT22;18781;51.550;5.418;2022-08-23T09:42:40;28.10;53.10
32296;DHT22;18781;51.550;5.418;2022-08-23T09:45:29;28.20;51.60
32296;DHT22;18781;51.550;5.418;2022-08-23T09:47:55;28.30;52.00
32296;DHT22;18781;51.550;5.418;2022-08-23T09:50:31;28.30;51.60
32296;DHT22;18781;51.550;5.418;2022-08-23T09:53:09;28.40;51.10
32296;DHT22;18781;51.550;5.418;2022-08-23T09:55:47;28.50;50.50
32296;DHT22;18781;51.550;5.418;2022-08-23T09:58:30;28.50;49.30
32296;DHT22;18781;51.550;5.418;2022-08-23T10:03:47;28.70;49.70
32296;DHT22;18781;51.550;5.418;2022-08-23T10:06:31;28.70;50.10
32296;DHT22;18781;51.550;5.418;2022-08-23T10:08:58;28.80;49.40
32296;DHT22;18781;51.550;5.418;2022-08-23T10:11:33;28.80;49.90
32296;DHT22;18781;51.550;5.418;2022-08-23T10:14:00;28.80;49.60
32296;DHT22;18781;51.550;5.418;2022-08-23T10:16:43;28.90;49.70
32296;DHT22;18781;51.550;5.418;2022-08-23T10:22:02;29.10;49.30
32296;DHT22;18781;51.550;5.418;2022-08-23T10:27:22;29.30;49.20
32296;DHT22;18781;51.550;5.418;2022-08-23T10:30:16;29.30;48.00
32296;DHT22;18781;51.550;5.418;2022-08-23T10:33:00;29.40;48.40
32296;DHT22;18781;51.550;5.418;2022-08-23T10:36:30;29.50;48.50
32296;DHT22;18781;51.550;5.418;2022-08-23T10:38:51;29.60;47.90
32296;DHT22;18781;51.550;5.418;2022-08-23T10:44:21;29.70;49.00
32296;DHT22;18781;51.550;5.418;2022-08-23T10:49:19;29.90;47.40
32296;DHT22;18781;51.550;5.418;2022-08-23T10:51:47;30.00;47.40
32296;DHT22;18781;51.550;5.418;2022-08-23T10:54:17;30.00;46.50
32296;DHT22;18781;51.550;5.418;2022-08-23T10:56:50;30.10;46.70
32296;DHT22;18781;51.550;5.418;2022-08-23T10:59:23;30.20;46.70
32296;DHT22;18781;51.550;5.418;2022-08-23T11:02:00;30.30;46.20
32296;DHT22;18781;51.550;5.418;2022-08-23T11:04:32;30.30;46.40
32296;DHT22;18781;51.550;5.418;2022-08-23T11:06:59;30.40;46.20
32296;DHT22;18781;51.550;5.418;2022-08-23T11:17:21;30.60;44.80
32296;DHT22;18781;51.550;5.418;2022-08-23T11:19:54;30.60;44.90
32296;DHT22;18781;51.550;5.418;2022-08-23T11:22:34;30.80;44.90
32296;DHT22;18781;51.550;5.418;2022-08-23T11:27:43;30.90;44.30
32296;DHT22;18781;51.550;5.418;2022-08-23T11:38:12;31.20;44.80
32296;DHT22;18781;51.550;5.418;2022-08-23T11:40:58;31.30;43.70
32296;DHT22;18781;51.550;5.418;2022-08-23T12:08:52;31.80;41.60
32296;DHT22;18781;51.550;5.418;2022-08-23T12:11:22;31.90;41.70
32296;DHT22;18781;51.550;5.418;2022-08-23T12:16:29;31.90;41.30
32296;DHT22;18781;51.550;5.418;2022-08-23T12:19:00;32.00;41.90
32296;DHT22;18781;51.550;5.418;2022-08-23T12:21:44;32.10;41.00
32296;DHT22;18781;51.550;5.418;2022-08-23T12:24:20;32.10;41.30
32296;DHT22;18781;51.550;5.418;2022-08-23T12:27:49;32.10;41.20
32296;DHT22;18781;51.550;5.418;2022-08-23T12:32:44;32.30;41.20
32296;DHT22;18781;51.550;5.418;2022-08-23T12:40:44;32.40;40.80
32296;DHT22;18781;51.550;5.418;2022-08-23T12:45:46;32.40;40.90
32296;DHT22;18781;51.550;5.418;2022-08-23T12:48:17;32.40;40.60
32296;DHT22;18781;51.550;5.418;2022-08-23T12:50:50;32.50;40.70
32296;DHT22;18781;51.550;5.418;2022-08-23T12:53:28;32.50;40.30
32296;DHT22;18781;51.550;5.418;2022-08-23T12:56:04;32.60;40.70
32296;DHT22;18781;51.550;5.418;2022-08-23T12:58:32;32.60;40.00
32296;DHT22;18781;51.550;5.418;2022-08-23T13:01:01;32.60;40.00
32296;DHT22;18781;51.550;5.418;2022-08-23T13:03:32;32.70;39.70
32296;DHT22;18781;51.550;5.418;2022-08-23T13:06:06;32.70;39.80
32296;DHT22;18781;51.550;5.418;2022-08-23T13:11:43;32.70;39.70
32296;DHT22;18781;51.550;5.418;2022-08-23T13:19:39;32.80;40.10
32296;DHT22;18781;51.550;5.418;2022-08-23T13:25:06;32.80;39.40
32296;DHT22;18781;51.550;5.418;2022-08-23T13:27:48;32.80;39.40
32296;DHT22;18781;51.550;5.418;2022-08-23T13:32:50;32.80;39.70
32296;DHT22;18781;51.550;5.418;2022-08-23T13:35:36;32.90;39.30
32296;DHT22;18781;51.550;5.418;2022-08-23T13:38:10;32.90;39.80
32296;DHT22;18781;51.550;5.418;2022-08-23T13:41:05;32.90;39.50
32296;DHT22;18781;51.550;5.418;2022-08-23T13:46:18;32.90;39.00
32296;DHT22;18781;51.550;5.418;2022-08-23T13:49:12;32.90;39.30
32296;DHT22;18781;51.550;5.418;2022-08-23T13:51:40;32.90;39.50
32296;DHT22;18781;51.550;5.418;2022-08-23T13:54:12;32.90;39.30
32296;DHT22;18781;51.550;5.418;2022-08-23T13:56:53;32.90;38.90
32296;DHT22;18781;51.550;5.418;2022-08-23T13:59:34;32.90;39.30
32296;DHT22;18781;51.550;5.418;2022-08-23T14:02:03;32.90;39.00
32296;DHT22;18781;51.550;5.418;2022-08-23T14:04:29;32.90;39.00
32296;DHT22;18781;51.550;5.418;2022-08-23T14:06:54;32.90;39.10
32296;DHT22;18781;51.550;5.418;2022-08-23T14:09:20;32.90;39.10
32296;DHT22;18781;51.550;5.418;2022-08-23T14:11:49;32.90;39.30
32296;DHT22;18781;51.550;5.418;2022-08-23T14:14:16;32.90;39.00
32296;DHT22;18781;51.550;5.418;2022-08-23T14:16:41;32.90;38.70
32296;DHT22;18781;51.550;5.418;2022-08-23T14:19:09;32.90;39.00
32296;DHT22;18781;51.550;5.418;2022-08-23T14:21:35;32.90;39.00
32296;DHT22;18781;51.550;5.418;2022-08-23T14:24:01;32.80;39.10
32296;DHT22;18781;51.550;5.418;2022-08-23T14:26:30;32.90;39.10
32296;DHT22;18781;51.550;5.418;2022-08-23T14:28:55;32.90;39.10
32296;DHT22;18781;51.550;5.418;2022-08-23T14:31:21;32.80;38.70
32296;DHT22;18781;51.550;5.418;2022-08-23T14:33:48;32.90;38.80
32296;DHT22;18781;51.550;5.418;2022-08-23T14:36:14;32.80;39.00
32296;DHT22;18781;51.550;5.418;2022-08-23T14:38:40;32.80;39.40
32296;DHT22;18781;51.550;5.418;2022-08-23T14:41:08;32.80;39.40
32296;DHT22;18781;51.550;5.418;2022-08-23T14:43:35;32.90;39.40
32296;DHT22;18781;51.550;5.418;2022-08-23T14:46:01;32.90;39.30
32296;DHT22;18781;51.550;5.418;2022-08-23T14:48:27;32.90;39.20
32296;DHT22;18781;51.550;5.418;2022-08-23T14:50:53;32.90;39.70
32296;DHT22;18781;51.550;5.418;2022-08-23T14:53:23;33.00;39.20
32296;DHT22;18781;51.550;5.418;2022-08-23T14:55:49;33.00;39.60
32296;DHT22;18781;51.550;5.418;2022-08-23T14:58:18;33.00;39.30
32296;DHT22;18781;51.550;5.418;2022-08-23T15:00:45;33.00;39.10
32296;DHT22;18781;51.550;5.418;2022-08-23T15:03:14;33.10;39.10
32296;DHT22;18781;51.550;5.418;2022-08-23T15:05:41;33.10;38.90
32296;DHT22;18781;51.550;5.418;2022-08-23T15:08:07;33.10;38.80
32296;DHT22;18781;51.550;5.418;2022-08-23T15:10:32;33.10;39.10
32296;DHT22;18781;51.550;5.418;2022-08-23T15:12:58;33.10;38.70
32296;DHT22;18781;51.550;5.418;2022-08-23T15:15:24;33.10;39.10
32296;DHT22;18781;51.550;5.418;2022-08-23T15:17:52;33.10;39.20
32296;DHT22;18781;51.550;5.418;2022-08-23T15:20:21;33.10;39.00
32296;DHT22;18781;51.550;5.418;2022-08-23T15:22:47;33.10;38.30
32296;DHT22;18781;51.550;5.418;2022-08-23T15:25:14;33.10;38.90
32296;DHT22;18781;51.550;5.418;2022-08-23T15:27:41;33.10;39.00
32296;DHT22;18781;51.550;5.418;2022-08-23T15:30:07;33.10;38.90
32296;DHT22;18781;51.550;5.418;2022-08-23T15:32:33;33.10;39.10
32296;DHT22;18781;51.550;5.418;2022-08-23T15:34:59;33.10;39.40
32296;DHT22;18781;51.550;5.418;2022-08-23T15:37:28;33.10;39.50
32296;DHT22;18781;51.550;5.418;2022-08-23T15:39:53;33.10;39.70
32296;DHT22;18781;51.550;5.418;2022-08-23T15:42:19;33.10;39.40
32296;DHT22;18781;51.550;5.418;2022-08-23T15:44:45;33.20;39.00
32296;DHT22;18781;51.550;5.418;2022-08-23T15:47:20;33.20;39.70
32296;DHT22;18781;51.550;5.418;2022-08-23T15:49:47;33.20;39.50
32296;DHT22;18781;51.550;5.418;2022-08-23T15:52:13;33.20;39.50
32296;DHT22;18781;51.550;5.418;2022-08-23T15:54:38;33.20;39.60
32296;DHT22;18781;51.550;5.418;2022-08-23T15:57:04;33.20;39.80
32296;DHT22;18781;51.550;5.418;2022-08-23T15:59:32;33.20;39.90
32296;DHT22;18781;51.550;5.418;2022-08-23T16:02:00;33.20;39.60
32296;DHT22;18781;51.550;5.418;2022-08-23T16:04:26;33.20;39.30
32296;DHT22;18781;51.550;5.418;2022-08-23T16:06:51;33.20;39.90
32296;DHT22;18781;51.550;5.418;2022-08-23T16:09:20;33.10;39.60
32296;DHT22;18781;51.550;5.418;2022-08-23T16:11:46;33.10;39.20
32296;DHT22;18781;51.550;5.418;2022-08-23T16:14:12;33.00;39.20
32296;DHT22;18781;51.550;5.418;2022-08-23T16:16:39;33.00;38.90
32296;DHT22;18781;51.550;5.418;2022-08-23T16:19:05;32.90;39.40
32296;DHT22;18781;51.550;5.418;2022-08-23T16:21:31;32.80;39.70
32296;DHT22;18781;51.550;5.418;2022-08-23T16:23:57;32.80;40.00
32296;DHT22;18781;51.550;5.418;2022-08-23T16:26:27;32.80;39.80
32296;DHT22;18781;51.550;5.418;2022-08-23T16:28:55;32.70;39.80
32296;DHT22;18781;51.550;5.418;2022-08-23T16:31:21;32.70;40.20
32296;DHT22;18781;51.550;5.418;2022-08-23T16:33:48;32.70;40.50
32296;DHT22;18781;51.550;5.418;2022-08-23T16:36:15;32.60;40.60
32296;DHT22;18781;51.550;5.418;2022-08-23T16:38:44;32.60;40.20
32296;DHT22;18781;51.550;5.418;2022-08-23T16:41:10;32.60;40.20
32296;DHT22;18781;51.550;5.418;2022-08-23T16:43:36;32.60;40.50
32296;DHT22;18781;51.550;5.418;2022-08-23T16:46:03;32.60;40.70
32296;DHT22;18781;51.550;5.418;2022-08-23T16:48:29;32.60;40.90
32296;DHT22;18781;51.550;5.418;2022-08-23T16:50:55;32.60;41.00
32296;DHT22;18781;51.550;5.418;2022-08-23T16:53:21;32.60;40.80
32296;DHT22;18781;51.550;5.418;2022-08-23T16:55:47;32.60;40.80
32296;DHT22;18781;51.550;5.418;2022-08-23T16:58:12;32.60;40.40
32296;DHT22;18781;51.550;5.418;2022-08-23T17:00:38;32.60;40.50
32296;DHT22;18781;51.550;5.418;2022-08-23T17:03:05;32.60;40.70
32296;DHT22;18781;51.550;5.418;2022-08-23T17:05:31;32.60;40.80
32296;DHT22;18781;51.550;5.418;2022-08-23T17:07:57;32.50;41.00
32296;DHT22;18781;51.550;5.418;2022-08-23T17:10:23;32.50;41.00
32296;DHT22;18781;51.550;5.418;2022-08-23T17:12:51;32.50;40.90
32296;DHT22;18781;51.550;5.418;2022-08-23T17:15:20;32.50;40.80
32296;DHT22;18781;51.550;5.418;2022-08-23T17:17:46;32.50;41.10
32296;DHT22;18781;51.550;5.418;2022-08-23T17:20:13;32.40;41.10
32296;DHT22;18781;51.550;5.418;2022-08-23T17:22:39;32.40;41.40
32296;DHT22;18781;51.550;5.418;2022-08-23T17:25:07;32.40;41.80
32296;DHT22;18781;51.550;5.418;2022-08-23T17:27:34;32.30;41.90